sensor_id;sensor_type;location;lat;lon;timestamp;pressure;altitude;pressure_sealevel;temperature;humidity
37904;BME280;23738;50.422;18.758;2024-03-25T00:00:27;97101.08;;;3.04;75.25
37904;BME280;23738;50.422;18.758;2024-03-25T00:02:56;97103.56;;;3.02;75.51
37904;BME280;23738;50.422;18.758;2024-03-25T00:05:23;97101.95;;;2.99;75.48
37904;BME280;23738;50.422;18.758;2024-03-25T00:07:52;97101.05;;;3.00;75.57
37904;BME280;23738;50.422;18.758;2024-03-25T00:10:20;97098.68;;;2.98;75.45
37904;BME280;23738;50.422;18.758;2024-03-25T00:12:48;97103.66;;;2.93;75.58
37904;BME280;23738;50.422;18.758;2024-03-25T00:15:19;97103.63;;;2.90;75.43
37904;BME280;23738;50.422;18.758;2024-03-25T00:17:47;97102.09;;;2.90;75.50
37904;BME280;23738;50.422;18.758;2024-03-25T00:20:15;97098.86;;;2.88;75.77
37904;BME280;23738;50.422;18.758;2024-03-25T00:22:43;97097.06;;;2.84;75.59
37904;BME280;23738;50.422;18.758;2024-03-25T00:25:10;97095.16;;;2.83;75.80
37904;BME280;23738;50.422;18.758;2024-03-25T00:27:38;97090.61;;;2.80;75.82
37904;BME280;23738;50.422;18.758;2024-03-25T00:30:07;97085.02;;;2.78;76.41
37904;BME280;23738;50.422;18.758;2024-03-25T00:32:36;97086.48;;;2.77;75.87
37904;BME280;23738;50.422;18.758;2024-03-25T00:35:04;97081.58;;;2.76;75.59
37904;BME280;23738;50.422;18.758;2024-03-25T00:37:32;97076.94;;;2.77;75.70
37904;BME280;23738;50.422;18.758;2024-03-25T00:40:00;97077.59;;;2.77;75.69
37904;BME280;23738;50.422;18.758;2024-03-25T00:42:28;97081.87;;;2.81;75.79
37904;BME280;23738;50.422;18.758;2024-03-25T00:44:56;97081.92;;;2.87;75.93
37904;BME280;23738;50.422;18.758;2024-03-25T00:47:23;97079.52;;;2.91;76.01
37904;BME280;23738;50.422;18.758;2024-03-25T00:49:51;97080.66;;;2.92;76.29
37904;BME280;23738;50.422;18.758;2024-03-25T00:52:19;97077.84;;;2.92;76.25
37904;BME280;23738;50.422;18.758;2024-03-25T00:54:47;97076.71;;;2.91;76.38
37904;BME280;23738;50.422;18.758;2024-03-25T00:57:15;97074.48;;;2.92;76.59
37904;BME280;23738;50.422;18.758;2024-03-25T00:59:43;97077.14;;;2.94;76.70
37904;BME280;23738;50.422;18.758;2024-03-25T01:02:11;97071.61;;;2.96;76.91
37904;BME280;23738;50.422;18.758;2024-03-25T01:04:39;97069.90;;;2.97;77.11
37904;BME280;23738;50.422;18.758;2024-03-25T01:07:06;97070.64;;;2.98;77.08
37904;BME280;23738;50.422;18.758;2024-03-25T01:09:35;97075.31;;;3.00;76.94
37904;BME280;23738;50.422;18.758;2024-03-25T01:12:03;97075.20;;;3.01;77.69
37904;BME280;23738;50.422;18.758;2024-03-25T01:14:30;97071.52;;;3.02;77.19
37904;BME280;23738;50.422;18.758;2024-03-25T01:16:58;97072.27;;;3.05;76.86
37904;BME280;23738;50.422;18.758;2024-03-25T01:19:26;97074.11;;;3.09;77.20
37904;BME280;23738;50.422;18.758;2024-03-25T01:21:54;97069.19;;;3.16;77.26
37904;BME280;23738;50.422;18.758;2024-03-25T01:24:21;97062.59;;;3.21;77.24
37904;BME280;23738;50.422;18.758;2024-03-25T01:26:49;97064.63;;;3.26;77.56
37904;BME280;23738;50.422;18.758;2024-03-25T01:29:17;97070.02;;;3.29;77.72
37904;BME280;23738;50.422;18.758;2024-03-25T01:31:46;97069.76;;;3.28;77.79
37904;BME280;23738;50.422;18.758;2024-03-25T01:34:13;97068.48;;;3.30;77.69
37904;BME280;23738;50.422;18.758;2024-03-25T01:36:41;97067.83;;;3.31;77.95
37904;BME280;23738;50.422;18.758;2024-03-25T01:39:10;97065.67;;;3.28;77.88
37904;BME280;23738;50.422;18.758;2024-03-25T01:41:38;97065.90;;;3.27;77.81
37904;BME280;23738;50.422;18.758;2024-03-25T01:44:06;97059.96;;;3.23;77.74
37904;BME280;23738;50.422;18.758;2024-03-25T01:46:34;97058.95;;;3.22;77.53
37904;BME280;23738;50.422;18.758;2024-03-25T01:49:01;97057.10;;;3.25;77.68
37904;BME280;23738;50.422;18.758;2024-03-25T01:51:29;97057.08;;;3.29;77.90
37904;BME280;23738;50.422;18.758;2024-03-25T01:53:57;97056.47;;;3.31;77.88
37904;BME280;23738;50.422;18.758;2024-03-25T01:56:26;97054.58;;;3.31;78.03
37904;BME280;23738;50.422;18.758;2024-03-25T01:58:55;97058.14;;;3.30;78.06
37904;BME280;23738;50.422;18.758;2024-03-25T02:04:10;97058.68;;;3.26;78.13
37904;BME280;23738;50.422;18.758;2024-03-25T02:07:18;97055.98;;;3.24;78.42
37904;BME280;23738;50.422;18.758;2024-03-25T02:10:26;97056.08;;;3.23;78.22
37904;BME280;23738;50.422;18.758;2024-03-25T02:13:33;97056.77;;;3.19;78.67
37904;BME280;23738;50.422;18.758;2024-03-25T02:16:41;97055.74;;;3.16;78.52
37904;BME280;23738;50.422;18.758;2024-03-25T02:19:48;97056.42;;;3.14;78.32
37904;BME280;23738;50.422;18.758;2024-03-25T02:22:56;97060.88;;;3.13;78.04
37904;BME280;23738;50.422;18.758;2024-03-25T02:26:04;97060.91;;;3.15;78.17
37904;BME280;23738;50.422;18.758;2024-03-25T02:29:11;97059.70;;;3.21;78.16
37904;BME280;23738;50.422;18.758;2024-03-25T02:32:19;97057.48;;;3.27;78.59
37904;BME280;23738;50.422;18.758;2024-03-25T02:35:26;97059.63;;;3.31;78.62
37904;BME280;23738;50.422;18.758;2024-03-25T02:38:34;97061.46;;;3.33;78.64
37904;BME280;23738;50.422;18.758;2024-03-25T02:41:47;97061.04;;;3.35;78.87
37904;BME280;23738;50.422;18.758;2024-03-25T02:45:02;97060.52;;;3.38;78.86
37904;BME280;23738;50.422;18.758;2024-03-25T02:48:09;97060.73;;;3.38;78.88
37904;BME280;23738;50.422;18.758;2024-03-25T02:51:17;97059.27;;;3.37;79.02
37904;BME280;23738;50.422;18.758;2024-03-25T02:54:25;97056.27;;;3.37;78.98
37904;BME280;23738;50.422;18.758;2024-03-25T02:57:32;97052.39;;;3.35;78.96
37904;BME280;23738;50.422;18.758;2024-03-25T03:00:40;97055.30;;;3.32;79.39
37904;BME280;23738;50.422;18.758;2024-03-25T03:03:47;97056.13;;;3.30;79.26
37904;BME280;23738;50.422;18.758;2024-03-25T03:06:55;97058.71;;;3.31;78.94
37904;BME280;23738;50.422;18.758;2024-03-25T03:10:03;97056.45;;;3.34;79.04
37904;BME280;23738;50.422;18.758;2024-03-25T03:13:10;97057.21;;;3.40;79.20
37904;BME280;23738;50.422;18.758;2024-03-25T03:16:18;97052.09;;;3.48;79.42
37904;BME280;23738;50.422;18.758;2024-03-25T03:19:32;97043.91;;;3.52;79.80
37904;BME280;23738;50.422;18.758;2024-03-25T03:22:40;97048.14;;;3.58;79.60
37904;BME280;23738;50.422;18.758;2024-03-25T03:25:48;97048.18;;;3.59;79.83
37904;BME280;23738;50.422;18.758;2024-03-25T03:28:55;97044.30;;;3.55;79.70
37904;BME280;23738;50.422;18.758;2024-03-25T03:32:03;97044.70;;;3.54;79.72
37904;BME280;23738;50.422;18.758;2024-03-25T03:35:11;97042.21;;;3.55;79.82
37904;BME280;23738;50.422;18.758;2024-03-25T03:38:18;97044.61;;;3.54;79.89
37904;BME280;23738;50.422;18.758;2024-03-25T03:41:26;97046.70;;;3.53;80.01
37904;BME280;23738;50.422;18.758;2024-03-25T03:44:39;97053.83;;;3.53;79.76
37904;BME280;23738;50.422;18.758;2024-03-25T03:47:58;97055.34;;;3.56;79.81
37904;BME280;23738;50.422;18.758;2024-03-25T03:51:06;97055.54;;;3.60;79.92
37904;BME280;23738;50.422;18.758;2024-03-25T03:54:14;97057.91;;;3.67;80.19
37904;BME280;23738;50.422;18.758;2024-03-25T03:57:21;97057.80;;;3.73;80.23
37904;BME280;23738;50.422;18.758;2024-03-25T04:00:29;97060.52;;;3.79;80.36
37904;BME280;23738;50.422;18.758;2024-03-25T04:03:37;97062.34;;;3.80;80.38
37904;BME280;23738;50.422;18.758;2024-03-25T04:06:44;97062.91;;;3.81;80.58
37904;BME280;23738;50.422;18.758;2024-03-25T04:09:52;97063.14;;;3.79;80.86
37904;BME280;23738;50.422;18.758;2024-03-25T04:12:59;97061.98;;;3.77;80.72
37904;BME280;23738;50.422;18.758;2024-03-25T04:16:07;97058.63;;;3.79;80.44
37904;BME280;23738;50.422;18.758;2024-03-25T04:19:15;97060.35;;;3.83;81.03
37904;BME280;23738;50.422;18.758;2024-03-25T04:22:23;97060.19;;;3.84;80.90
37904;BME280;23738;50.422;18.758;2024-03-25T04:25:31;97063.05;;;3.86;81.11
37904;BME280;23738;50.422;18.758;2024-03-25T04:28:39;97059.17;;;3.83;81.44
37904;BME280;23738;50.422;18.758;2024-03-25T04:31:47;97064.77;;;3.80;81.14
37904;BME280;23738;50.422;18.758;2024-03-25T04:34:54;97065.28;;;3.80;81.04
37904;BME280;23738;50.422;18.758;2024-03-25T04:38:02;97060.70;;;3.83;81.21
37904;BME280;23738;50.422;18.758;2024-03-25T04:41:10;97064.05;;;3.86;81.39
37904;BME280;23738;50.422;18.758;2024-03-25T04:44:17;97066.40;;;3.88;81.29
37904;BME280;23738;50.422;18.758;2024-03-25T04:47:25;97068.99;;;3.92;81.63
37904;BME280;23738;50.422;18.758;2024-03-25T04:50:32;97069.45;;;3.95;81.71
37904;BME280;23738;50.422;18.758;2024-03-25T04:53:40;97068.04;;;3.93;81.70
37904;BME280;23738;50.422;18.758;2024-03-25T04:56:48;97063.56;;;3.92;81.89
37904;BME280;23738;50.422;18.758;2024-03-25T04:59:55;97066.05;;;3.88;82.02
37904;BME280;23738;50.422;18.758;2024-03-25T05:03:03;97068.05;;;3.88;81.65
37904;BME280;23738;50.422;18.758;2024-03-25T05:06:10;97065.40;;;3.91;81.85
37904;BME280;23738;50.422;18.758;2024-03-25T05:09:18;97064.98;;;3.94;81.76
37904;BME280;23738;50.422;18.758;2024-03-25T05:12:26;97069.01;;;4.02;82.00
37904;BME280;23738;50.422;18.758;2024-03-25T05:15:33;97066.91;;;4.10;82.16
37904;BME280;23738;50.422;18.758;2024-03-25T05:18:41;97072.73;;;4.17;82.28
37904;BME280;23738;50.422;18.758;2024-03-25T05:21:48;97066.00;;;4.22;82.40
37904;BME280;23738;50.422;18.758;2024-03-25T05:24:56;97073.25;;;4.22;82.26
37904;BME280;23738;50.422;18.758;2024-03-25T05:28:10;97074.06;;;4.22;82.43
37904;BME280;23738;50.422;18.758;2024-03-25T05:31:17;97075.58;;;4.23;82.28
37904;BME280;23738;50.422;18.758;2024-03-25T05:34:26;97073.88;;;4.28;82.41
37904;BME280;23738;50.422;18.758;2024-03-25T05:37:32;97077.83;;;4.32;83.48
37904;BME280;23738;50.422;18.758;2024-03-25T05:40:40;97074.51;;;4.34;82.89
37904;BME280;23738;50.422;18.758;2024-03-25T05:43:47;97081.63;;;4.35;82.96
37904;BME280;23738;50.422;18.758;2024-03-25T05:46:55;97083.92;;;4.38;83.16
37904;BME280;23738;50.422;18.758;2024-03-25T05:50:03;97085.67;;;4.42;83.13
37904;BME280;23738;50.422;18.758;2024-03-25T05:53:11;97092.21;;;4.45;83.48
37904;BME280;23738;50.422;18.758;2024-03-25T05:56:18;97093.30;;;4.48;83.28
37904;BME280;23738;50.422;18.758;2024-03-25T05:59:26;97098.55;;;4.53;83.22
37904;BME280;23738;50.422;18.758;2024-03-25T06:02:33;97097.80;;;4.60;83.44
37904;BME280;23738;50.422;18.758;2024-03-25T06:05:41;97101.83;;;4.68;83.41
37904;BME280;23738;50.422;18.758;2024-03-25T06:08:49;97102.71;;;4.72;83.61
37904;BME280;23738;50.422;18.758;2024-03-25T06:11:56;97101.67;;;4.75;83.54
37904;BME280;23738;50.422;18.758;2024-03-25T06:15:04;97102.34;;;4.76;83.70
37904;BME280;23738;50.422;18.758;2024-03-25T06:18:12;97104.81;;;4.75;83.79
37904;BME280;23738;50.422;18.758;2024-03-25T06:21:19;97104.94;;;4.75;83.75
37904;BME280;23738;50.422;18.758;2024-03-25T06:24:27;97108.27;;;4.79;84.28
37904;BME280;23738;50.422;18.758;2024-03-25T06:27:32;97111.25;;;4.87;84.31
37904;BME280;23738;50.422;18.758;2024-03-25T06:30:40;97113.65;;;4.96;84.07
37904;BME280;23738;50.422;18.758;2024-03-25T06:33:45;97117.52;;;5.06;84.07
37904;BME280;23738;50.422;18.758;2024-03-25T06:37:02;97121.26;;;5.15;84.17
37904;BME280;23738;50.422;18.758;2024-03-25T06:40:11;97125.05;;;5.18;84.68
37904;BME280;23738;50.422;18.758;2024-03-25T06:43:19;97127.83;;;5.16;84.40
37904;BME280;23738;50.422;18.758;2024-03-25T06:46:26;97136.27;;;5.13;84.35
37904;BME280;23738;50.422;18.758;2024-03-25T06:49:34;97137.55;;;5.11;84.50
37904;BME280;23738;50.422;18.758;2024-03-25T06:52:41;97140.34;;;5.14;84.24
37904;BME280;23738;50.422;18.758;2024-03-25T06:55:52;97141.20;;;5.18;84.51
37904;BME280;23738;50.422;18.758;2024-03-25T06:59:00;97143.81;;;5.21;85.01
37904;BME280;23738;50.422;18.758;2024-03-25T07:02:07;97144.23;;;5.23;84.63
37904;BME280;23738;50.422;18.758;2024-03-25T07:05:15;97149.88;;;5.25;84.79
37904;BME280;23738;50.422;18.758;2024-03-25T07:08:23;97150.95;;;5.25;84.98
37904;BME280;23738;50.422;18.758;2024-03-25T07:11:30;97151.83;;;5.22;84.78
37904;BME280;23738;50.422;18.758;2024-03-25T07:14:38;97153.64;;;5.22;84.89
37904;BME280;23738;50.422;18.758;2024-03-25T07:17:45;97158.38;;;5.24;84.74
37904;BME280;23738;50.422;18.758;2024-03-25T07:20:53;97161.86;;;5.28;84.98
37904;BME280;23738;50.422;18.758;2024-03-25T07:24:01;97163.84;;;5.28;85.12
37904;BME280;23738;50.422;18.758;2024-03-25T07:27:08;97160.38;;;5.27;85.10
37904;BME280;23738;50.422;18.758;2024-03-25T07:30:16;97167.15;;;5.29;85.42
37904;BME280;23738;50.422;18.758;2024-03-25T07:33:24;97168.98;;;5.32;86.63
37904;BME280;23738;50.422;18.758;2024-03-25T07:36:31;97169.45;;;5.29;86.43
37904;BME280;23738;50.422;18.758;2024-03-25T07:39:39;97180.54;;;5.26;86.29
37904;BME280;23738;50.422;18.758;2024-03-25T07:42:46;97183.11;;;5.26;86.02
37904;BME280;23738;50.422;18.758;2024-03-25T07:45:54;97184.14;;;5.27;85.60
37904;BME280;23738;50.422;18.758;2024-03-25T07:49:02;97183.57;;;5.36;85.65
37904;BME280;23738;50.422;18.758;2024-03-25T07:52:10;97182.70;;;5.52;86.02
37904;BME280;23738;50.422;18.758;2024-03-25T07:55:17;97180.42;;;5.64;86.57
37904;BME280;23738;50.422;18.758;2024-03-25T07:58:24;97181.47;;;5.78;86.19
37904;BME280;23738;50.422;18.758;2024-03-25T08:01:32;97188.30;;;5.95;86.38
37904;BME280;23738;50.422;18.758;2024-03-25T08:04:39;97191.91;;;6.18;86.28
37904;BME280;23738;50.422;18.758;2024-03-25T08:07:47;97189.66;;;6.57;86.80
37904;BME280;23738;50.422;18.758;2024-03-25T08:10:55;97190.88;;;6.88;86.60
37904;BME280;23738;50.422;18.758;2024-03-25T08:14:03;97190.94;;;7.12;86.20
37904;BME280;23738;50.422;18.758;2024-03-25T08:17:10;97191.00;;;7.32;86.10
37904;BME280;23738;50.422;18.758;2024-03-25T08:20:18;97194.09;;;7.27;85.55
37904;BME280;23738;50.422;18.758;2024-03-25T08:23:39;97193.95;;;7.20;85.92
37904;BME280;23738;50.422;18.758;2024-03-25T08:26:47;97193.61;;;7.28;86.24
37904;BME280;23738;50.422;18.758;2024-03-25T08:29:55;97195.52;;;7.30;85.89
37904;BME280;23738;50.422;18.758;2024-03-25T08:33:02;97203.56;;;7.24;85.57
37904;BME280;23738;50.422;18.758;2024-03-25T08:36:10;97203.45;;;7.07;84.91
37904;BME280;23738;50.422;18.758;2024-03-25T08:39:18;97210.23;;;6.91;85.14
37904;BME280;23738;50.422;18.758;2024-03-25T08:42:25;97215.61;;;6.82;85.15
37904;BME280;23738;50.422;18.758;2024-03-25T08:45:33;97220.02;;;6.68;85.28
37904;BME280;23738;50.422;18.758;2024-03-25T08:48:40;97222.19;;;6.57;85.07
37904;BME280;23738;50.422;18.758;2024-03-25T08:51:48;97223.14;;;6.63;85.83
37904;BME280;23738;50.422;18.758;2024-03-25T08:54:25;97221.34;;;6.75;86.00
37904;BME280;23738;50.422;18.758;2024-03-25T08:56:54;97227.75;;;6.91;85.80
37904;BME280;23738;50.422;18.758;2024-03-25T08:59:23;97229.29;;;7.18;86.13
37904;BME280;23738;50.422;18.758;2024-03-25T09:02:00;97225.08;;;7.36;86.28
37904;BME280;23738;50.422;18.758;2024-03-25T09:04:28;97228.55;;;7.35;85.82
37904;BME280;23738;50.422;18.758;2024-03-25T09:07:35;97230.64;;;7.23;85.25
37904;BME280;23738;50.422;18.758;2024-03-25T09:10:44;97231.45;;;7.17;85.06
37904;BME280;23738;50.422;18.758;2024-03-25T09:13:52;97233.19;;;7.15;85.35
37904;BME280;23738;50.422;18.758;2024-03-25T09:16:59;97227.05;;;7.11;84.94
37904;BME280;23738;50.422;18.758;2024-03-25T09:20:08;97236.65;;;7.07;84.80
37904;BME280;23738;50.422;18.758;2024-03-25T09:23:15;97240.36;;;7.01;84.89
37904;BME280;23738;50.422;18.758;2024-03-25T09:26:23;97245.80;;;6.92;84.77
37904;BME280;23738;50.422;18.758;2024-03-25T09:29:30;97256.66;;;6.74;84.83
37904;BME280;23738;50.422;18.758;2024-03-25T09:32:38;97253.64;;;6.53;84.65
37904;BME280;23738;50.422;18.758;2024-03-25T09:35:47;97252.05;;;6.33;85.77
37904;BME280;23738;50.422;18.758;2024-03-25T09:38:53;97250.09;;;6.22;87.16
37904;BME280;23738;50.422;18.758;2024-03-25T09:42:01;97251.98;;;6.40;86.70
37904;BME280;23738;50.422;18.758;2024-03-25T09:45:09;97251.80;;;6.80;87.01
37904;BME280;23738;50.422;18.758;2024-03-25T09:48:17;97246.79;;;7.28;87.22
37904;BME280;23738;50.422;18.758;2024-03-25T09:51:24;97242.67;;;7.58;86.13
37904;BME280;23738;50.422;18.758;2024-03-25T09:54:32;97237.05;;;7.99;85.84
37904;BME280;23738;50.422;18.758;2024-03-25T09:57:39;97239.07;;;8.19;83.94
37904;BME280;23738;50.422;18.758;2024-03-25T10:00:47;97239.25;;;8.11;82.60
37904;BME280;23738;50.422;18.758;2024-03-25T10:03:54;97239.38;;;8.05;83.78
37904;BME280;23738;50.422;18.758;2024-03-25T10:07:02;97238.62;;;7.93;84.12
37904;BME280;23738;50.422;18.758;2024-03-25T10:10:10;97246.65;;;7.85;84.25
37904;BME280;23738;50.422;18.758;2024-03-25T10:13:17;97255.98;;;7.69;82.60
37904;BME280;23738;50.422;18.758;2024-03-25T10:16:25;97263.78;;;7.40;83.15
37904;BME280;23738;50.422;18.758;2024-03-25T10:19:33;97268.62;;;7.06;83.51
37904;BME280;23738;50.422;18.758;2024-03-25T10:22:44;97271.23;;;6.83;84.00
37904;BME280;23738;50.422;18.758;2024-03-25T10:25:53;97277.11;;;6.85;85.02
37904;BME280;23738;50.422;18.758;2024-03-25T10:29:00;97281.71;;;6.92;85.25
37904;BME280;23738;50.422;18.758;2024-03-25T10:32:08;97282.13;;;6.99;86.03
37904;BME280;23738;50.422;18.758;2024-03-25T10:35:15;97273.73;;;7.46;86.68
37904;BME280;23738;50.422;18.758;2024-03-25T10:38:23;97269.68;;;7.69;85.65
37904;BME280;23738;50.422;18.758;2024-03-25T10:41:30;97290.55;;;7.55;85.26
37904;BME280;23738;50.422;18.758;2024-03-25T10:44:38;97301.20;;;7.19;84.70
37904;BME280;23738;50.422;18.758;2024-03-25T10:47:45;97293.73;;;6.80;84.14
37904;BME280;23738;50.422;18.758;2024-03-25T10:50:53;97294.45;;;6.57;84.82
37904;BME280;23738;50.422;18.758;2024-03-25T10:54:01;97294.05;;;6.49;85.36
37904;BME280;23738;50.422;18.758;2024-03-25T10:57:08;97293.05;;;6.76;85.96
37904;BME280;23738;50.422;18.758;2024-03-25T11:01:38;97285.65;;;7.54;86.97
37904;BME280;23738;50.422;18.758;2024-03-25T11:04:08;97284.44;;;8.01;87.40
37904;BME280;23738;50.422;18.758;2024-03-25T11:06:37;97284.21;;;8.34;87.45
37904;BME280;23738;50.422;18.758;2024-03-25T11:09:06;97285.21;;;8.56;87.08
37904;BME280;23738;50.422;18.758;2024-03-25T11:11:36;97284.42;;;8.79;86.30
37904;BME280;23738;50.422;18.758;2024-03-25T11:14:14;97283.60;;;8.84;85.98
37904;BME280;23738;50.422;18.758;2024-03-25T11:16:50;97286.38;;;8.78;85.23
37904;BME280;23738;50.422;18.758;2024-03-25T11:19:20;97289.14;;;8.74;84.86
37904;BME280;23738;50.422;18.758;2024-03-25T11:21:50;97285.09;;;9.01;84.50
37904;BME280;23738;50.422;18.758;2024-03-25T11:24:28;97282.95;;;9.03;83.14
37904;BME280;23738;50.422;18.758;2024-03-25T11:26:58;97280.39;;;8.97;83.41
37904;BME280;23738;50.422;18.758;2024-03-25T11:29:29;97278.02;;;8.86;83.29
37904;BME280;23738;50.422;18.758;2024-03-25T11:32:01;97284.27;;;8.73;82.87
37904;BME280;23738;50.422;18.758;2024-03-25T11:34:32;97293.16;;;8.49;81.62
37904;BME280;23738;50.422;18.758;2024-03-25T11:37:03;97296.05;;;8.17;81.00
37904;BME280;23738;50.422;18.758;2024-03-25T11:39:34;97299.30;;;7.94;82.09
37904;BME280;23738;50.422;18.758;2024-03-25T11:42:04;97302.45;;;7.82;81.63
37904;BME280;23738;50.422;18.758;2024-03-25T11:44:33;97307.45;;;7.63;81.38
37904;BME280;23738;50.422;18.758;2024-03-25T11:47:06;97312.23;;;7.48;81.24
37904;BME280;23738;50.422;18.758;2024-03-25T11:49:40;97306.89;;;7.36;81.55
37904;BME280;23738;50.422;18.758;2024-03-25T11:52:09;97312.02;;;7.27;81.56
37904;BME280;23738;50.422;18.758;2024-03-25T11:54:39;97316.10;;;7.26;81.97
37904;BME280;23738;50.422;18.758;2024-03-25T11:57:08;97312.73;;;7.31;82.26
37904;BME280;23738;50.422;18.758;2024-03-25T11:59:37;97313.90;;;7.32;82.42
37904;BME280;23738;50.422;18.758;2024-03-25T12:02:08;97313.34;;;7.28;82.04
37904;BME280;23738;50.422;18.758;2024-03-25T12:04:37;97307.99;;;7.23;82.09
37904;BME280;23738;50.422;18.758;2024-03-25T12:07:07;97306.52;;;7.25;82.41
37904;BME280;23738;50.422;18.758;2024-03-25T12:09:36;97304.73;;;7.54;83.48
37904;BME280;23738;50.422;18.758;2024-03-25T12:15:32;97285.93;;;8.52;83.77
37904;BME280;23738;50.422;18.758;2024-03-25T12:18:02;97286.27;;;9.00;83.92
37904;BME280;23738;50.422;18.758;2024-03-25T12:20:31;97292.09;;;9.09;81.18
37904;BME280;23738;50.422;18.758;2024-03-25T12:23:03;97307.61;;;8.81;80.61
37904;BME280;23738;50.422;18.758;2024-03-25T12:25:32;97314.33;;;8.46;80.86
37904;BME280;23738;50.422;18.758;2024-03-25T12:28:07;97316.20;;;8.20;81.00
37904;BME280;23738;50.422;18.758;2024-03-25T12:30:49;97317.63;;;8.05;80.99
37904;BME280;23738;50.422;18.758;2024-03-25T12:33:19;97321.44;;;8.04;81.57
37904;BME280;23738;50.422;18.758;2024-03-25T12:35:50;97318.58;;;8.23;82.22
37904;BME280;23738;50.422;18.758;2024-03-25T12:38:27;97312.88;;;8.45;81.28
37904;BME280;23738;50.422;18.758;2024-03-25T12:41:06;97313.98;;;8.49;77.56
37904;BME280;23738;50.422;18.758;2024-03-25T12:43:36;97316.09;;;8.54;77.39
37904;BME280;23738;50.422;18.758;2024-03-25T12:46:06;97313.22;;;8.48;77.36
37904;BME280;23738;50.422;18.758;2024-03-25T12:48:35;97314.27;;;8.41;78.16
37904;BME280;23738;50.422;18.758;2024-03-25T12:51:05;97311.24;;;8.56;79.21
37904;BME280;23738;50.422;18.758;2024-03-25T12:53:34;97310.94;;;8.88;79.52
37904;BME280;23738;50.422;18.758;2024-03-25T12:56:04;97308.17;;;9.16;79.76
37904;BME280;23738;50.422;18.758;2024-03-25T12:58:34;97308.88;;;9.26;78.56
37904;BME280;23738;50.422;18.758;2024-03-25T13:01:04;97304.20;;;9.43;78.38
37904;BME280;23738;50.422;18.758;2024-03-25T13:03:34;97303.57;;;9.56;78.13
37904;BME280;23738;50.422;18.758;2024-03-25T13:06:04;97309.20;;;9.78;78.96
37904;BME280;23738;50.422;18.758;2024-03-25T13:08:34;97302.20;;;10.02;77.81
37904;BME280;23738;50.422;18.758;2024-03-25T13:11:03;97309.23;;;10.25;74.86
37904;BME280;23738;50.422;18.758;2024-03-25T13:13:33;97308.23;;;10.32;75.01
37904;BME280;23738;50.422;18.758;2024-03-25T13:16:03;97323.70;;;10.19;73.12
37904;BME280;23738;50.422;18.758;2024-03-25T13:18:33;97346.41;;;9.67;70.27
37904;BME280;23738;50.422;18.758;2024-03-25T13:21:02;97356.67;;;9.06;72.26
37904;BME280;23738;50.422;18.758;2024-03-25T13:23:32;97353.83;;;8.63;74.92
37904;BME280;23738;50.422;18.758;2024-03-25T13:26:01;97355.80;;;8.44;76.47
37904;BME280;23738;50.422;18.758;2024-03-25T13:28:31;97351.21;;;8.46;76.92
37904;BME280;23738;50.422;18.758;2024-03-25T13:31:00;97347.38;;;8.69;77.70
37904;BME280;23738;50.422;18.758;2024-03-25T13:33:30;97341.27;;;9.00;77.40
37904;BME280;23738;50.422;18.758;2024-03-25T13:35:59;97335.21;;;9.21;76.83
37904;BME280;23738;50.422;18.758;2024-03-25T13:38:28;97332.19;;;9.33;76.72
37904;BME280;23738;50.422;18.758;2024-03-25T13:40:58;97331.57;;;9.45;77.59
37904;BME280;23738;50.422;18.758;2024-03-25T13:43:27;97327.41;;;9.53;77.00
37904;BME280;23738;50.422;18.758;2024-03-25T13:45:56;97328.56;;;9.58;77.20
37904;BME280;23738;50.422;18.758;2024-03-25T13:48:25;97330.90;;;9.67;76.90
37904;BME280;23738;50.422;18.758;2024-03-25T13:50:56;97334.58;;;9.70;75.92
37904;BME280;23738;50.422;18.758;2024-03-25T13:53:25;97333.07;;;9.65;75.21
37904;BME280;23738;50.422;18.758;2024-03-25T13:55:54;97337.57;;;9.62;74.93
37904;BME280;23738;50.422;18.758;2024-03-25T13:58:24;97342.15;;;9.65;76.30
37904;BME280;23738;50.422;18.758;2024-03-25T14:00:53;97344.68;;;9.73;76.23
37904;BME280;23738;50.422;18.758;2024-03-25T14:03:23;97347.63;;;9.78;74.79
37904;BME280;23738;50.422;18.758;2024-03-25T14:05:53;97349.45;;;9.85;75.87
37904;BME280;23738;50.422;18.758;2024-03-25T14:08:23;97353.20;;;9.91;72.75
37904;BME280;23738;50.422;18.758;2024-03-25T14:10:59;97354.11;;;9.88;72.80
37904;BME280;23738;50.422;18.758;2024-03-25T14:13:29;97356.72;;;9.83;71.88
37904;BME280;23738;50.422;18.758;2024-03-25T14:15:58;97357.94;;;9.77;73.47
37904;BME280;23738;50.422;18.758;2024-03-25T14:18:28;97360.22;;;9.67;73.78
37904;BME280;23738;50.422;18.758;2024-03-25T14:20:58;97362.92;;;9.54;74.79
37904;BME280;23738;50.422;18.758;2024-03-25T14:23:28;97359.07;;;9.44;74.78
37904;BME280;23738;50.422;18.758;2024-03-25T14:25:57;97360.39;;;9.39;75.09
37904;BME280;23738;50.422;18.758;2024-03-25T14:28:26;97365.53;;;9.29;74.11
37904;BME280;23738;50.422;18.758;2024-03-25T14:30:56;97370.45;;;9.07;74.26
37904;BME280;23738;50.422;18.758;2024-03-25T14:33:25;97377.80;;;8.84;74.73
37904;BME280;23738;50.422;18.758;2024-03-25T14:35:54;97381.44;;;8.65;75.14
37904;BME280;23738;50.422;18.758;2024-03-25T14:38:23;97378.71;;;8.51;75.32
37904;BME280;23738;50.422;18.758;2024-03-25T14:40:53;97379.89;;;8.40;75.42
37904;BME280;23738;50.422;18.758;2024-03-25T14:43:24;97383.30;;;8.28;75.52
37904;BME280;23738;50.422;18.758;2024-03-25T14:45:53;97383.19;;;8.24;75.90
37904;BME280;23738;50.422;18.758;2024-03-25T14:48:22;97376.76;;;8.23;76.18
37904;BME280;23738;50.422;18.758;2024-03-25T14:50:51;97379.54;;;8.26;76.32
37904;BME280;23738;50.422;18.758;2024-03-25T14:53:20;97376.78;;;8.27;76.20
37904;BME280;23738;50.422;18.758;2024-03-25T14:55:50;97381.35;;;8.32;76.44
37904;BME280;23738;50.422;18.758;2024-03-25T14:58:19;97377.74;;;8.31;76.23
37904;BME280;23738;50.422;18.758;2024-03-25T15:00:48;97383.34;;;8.25;75.96
37904;BME280;23738;50.422;18.758;2024-03-25T15:03:18;97385.69;;;8.27;76.40
37904;BME280;23738;50.422;18.758;2024-03-25T15:05:47;97382.69;;;8.29;76.34